createdAt,value
2019-05-01T00:00:47.987Z,927.06
2019-05-01T00:02:19.803Z,927.00
2019-05-01T00:03:51.774Z,927.01
2019-05-01T00:05:23.432Z,926.99
2019-05-01T00:06:55.254Z,926.97
2019-05-01T00:08:27.063Z,926.95
2019-05-01T00:09:58.878Z,926.98
2019-05-01T00:11:30.702Z,927.00
2019-05-01T00:13:02.506Z,926.99
2019-05-01T00:14:34.333Z,926.99
2019-05-01T00:16:06.135Z,927.05
2019-05-01T00:17:37.953Z,927.07
2019-05-01T00:19:09.766Z,927.04
2019-05-01T00:20:41.587Z,927.04
2019-05-01T00:22:13.515Z,927.01
2019-05-01T00:23:45.213Z,927.02
2019-05-01T00:25:17.027Z,927.07
2019-05-01T00:26:48.851Z,927.10
2019-05-01T00:28:20.656Z,927.13
2019-05-01T00:29:52.470Z,927.17
2019-05-01T00:31:24.287Z,927.28
2019-05-01T00:32:56.102Z,927.27
2019-05-01T00:34:27.926Z,927.16
2019-05-01T00:35:59.732Z,927.14
2019-05-01T00:37:31.546Z,927.13
2019-05-01T00:39:03.361Z,927.15
2019-05-01T00:40:35.277Z,927.13
2019-05-01T00:42:06.991Z,927.12
2019-05-01T00:43:38.808Z,927.13
2019-05-01T00:45:10.680Z,927.14
2019-05-01T00:46:42.437Z,927.13
2019-05-01T00:48:14.252Z,927.11
2019-05-01T00:49:46.067Z,927.12
2019-05-01T00:51:17.903Z,927.08
2019-05-01T00:52:49.802Z,927.08
2019-05-01T00:54:21.542Z,927.12
2019-05-01T00:55:53.358Z,927.13
2019-05-01T00:57:25.141Z,927.15
2019-05-01T00:58:57.157Z,927.22
2019-05-01T01:00:28.771Z,927.19
2019-05-01T01:02:00.587Z,927.25
2019-05-01T01:03:32.401Z,927.22
2019-05-01T01:05:04.219Z,927.23
2019-05-01T01:06:36.033Z,927.24
2019-05-01T01:08:07.864Z,927.27
2019-05-01T01:09:39.662Z,927.33
2019-05-01T01:11:11.477Z,927.35
2019-05-01T01:12:43.292Z,927.42
2019-05-01T01:14:15.106Z,927.43
2019-05-01T01:15:46.922Z,927.41
2019-05-01T01:17:18.837Z,927.35
2019-05-01T01:18:50.552Z,927.38
2019-05-01T01:20:22.388Z,927.38
2019-05-01T01:21:54.182Z,927.35
2019-05-01T01:23:26.099Z,927.35
2019-05-01T01:24:57.811Z,927.28
2019-05-01T01:26:29.679Z,927.23
2019-05-01T01:28:01.444Z,927.19
2019-05-01T01:29:33.258Z,927.16
2019-05-01T01:31:05.074Z,927.20
2019-05-01T01:32:36.888Z,927.22
2019-05-01T01:34:08.703Z,927.20
2019-05-01T01:35:40.624Z,927.25
2019-05-01T01:37:12.338Z,927.25
2019-05-01T01:38:44.157Z,927.22
2019-05-01T01:40:15.965Z,927.17
2019-05-01T01:41:47.779Z,927.12
2019-05-01T01:43:19.596Z,927.15
2019-05-01T01:44:51.423Z,927.13
2019-05-01T01:46:23.229Z,927.15
2019-05-01T01:47:55.042Z,927.17
2019-05-01T01:49:26.857Z,927.17
2019-05-01T01:50:58.673Z,927.16
2019-05-01T01:52:30.503Z,927.13
2019-05-01T01:54:02.504Z,927.13
2019-05-01T01:55:34.118Z,927.11
2019-05-01T01:57:05.934Z,927.10
2019-05-01T01:58:37.748Z,927.12
2019-05-01T02:00:09.565Z,927.10
2019-05-01T02:01:41.384Z,927.09
2019-05-01T02:03:13.195Z,927.10
2019-05-01T02:04:45.011Z,927.04
2019-05-01T02:06:16.824Z,927.03
2019-05-01T02:07:48.642Z,927.05
2019-05-01T02:09:20.459Z,927.03
2019-05-01T02:10:52.271Z,927.06
2019-05-01T02:12:24.187Z,927.02
2019-05-01T02:13:55.899Z,927.04
2019-05-01T02:15:27.715Z,927.07
2019-05-01T02:16:59.530Z,927.06
2019-05-01T02:18:31.348Z,927.07
2019-05-01T02:20:03.164Z,927.07
2019-05-01T02:21:34.975Z,927.12
2019-05-01T02:23:06.791Z,927.11
2019-05-01T02:24:38.706Z,927.08
2019-05-01T02:26:10.421Z,927.09
2019-05-01T02:27:42.235Z,927.03
2019-05-01T02:29:14.051Z,926.98
2019-05-01T02:30:45.966Z,926.99
2019-05-01T02:32:17.694Z,926.95
2019-05-01T02:33:49.496Z,926.87
2019-05-01T02:35:21.309Z,926.82
2019-05-01T02:36:53.132Z,926.78
2019-05-01T02:38:24.939Z,926.73
2019-05-01T02:39:56.757Z,926.75
2019-05-01T02:41:28.570Z,926.71
2019-05-01T02:43:00.385Z,926.74
2019-05-01T02:44:32.205Z,926.77
2019-05-01T02:46:04.015Z,926.71
2019-05-01T02:47:35.828Z,926.72
2019-05-01T02:49:07.742Z,926.70
2019-05-01T02:50:39.456Z,926.69
2019-05-01T02:52:11.270Z,926.73
2019-05-01T02:53:43.086Z,926.77
2019-05-01T02:55:14.999Z,926.83
2019-05-01T02:56:46.715Z,926.81
2019-05-01T02:58:18.529Z,926.82
2019-05-01T02:59:50.344Z,926.82
2019-05-01T03:01:22.157Z,926.78
2019-05-01T03:02:53.973Z,926.75
2019-05-01T03:04:25.787Z,926.78
2019-05-01T03:05:57.602Z,926.79
2019-05-01T03:07:29.617Z,926.76
2019-05-01T03:09:01.230Z,926.79
2019-05-01T03:10:33.044Z,926.73
2019-05-01T03:12:04.861Z,926.74
2019-05-01T03:13:36.773Z,926.74
2019-05-01T03:15:08.490Z,926.68
2019-05-01T03:16:40.302Z,926.70
2019-05-01T03:18:12.122Z,926.67
2019-05-01T03:19:43.935Z,926.67
2019-05-01T03:21:15.746Z,926.68
2019-05-01T03:22:47.567Z,926.64
2019-05-01T03:24:19.374Z,926.69
2019-05-01T03:25:51.386Z,926.71
2019-05-01T03:27:23.006Z,926.75
2019-05-01T03:28:54.820Z,926.79
2019-05-01T03:30:26.631Z,926.79
2019-05-01T03:32:15.261Z,926.78
2019-05-01T03:33:30.267Z,926.84
2019-05-01T03:35:02.078Z,926.86
2019-05-01T03:36:33.887Z,926.87
2019-05-01T03:38:05.701Z,926.83
2019-05-01T03:39:37.516Z,926.82
2019-05-01T03:41:09.329Z,926.82
2019-05-01T03:42:41.145Z,926.80
2019-05-01T03:44:13.310Z,926.80
2019-05-01T03:45:44.772Z,926.79
2019-05-01T03:47:16.587Z,926.72
2019-05-01T03:48:48.403Z,926.69
2019-05-01T03:50:20.216Z,926.69
2019-05-01T03:51:52.031Z,926.66
2019-05-01T03:53:23.843Z,926.66
2019-05-01T03:54:55.656Z,926.64
2019-05-01T03:56:27.573Z,926.60
2019-05-01T03:57:59.283Z,926.59
2019-05-01T03:59:31.098Z,926.61
2019-05-01T04:01:02.917Z,926.59
2019-05-01T04:02:34.874Z,926.59
2019-05-01T04:04:06.544Z,926.56
2019-05-01T04:05:38.355Z,926.55
2019-05-01T04:07:10.169Z,926.56
2019-05-01T04:08:41.982Z,926.58
2019-05-01T04:10:13.797Z,926.54
2019-05-01T04:11:45.612Z,926.56
2019-05-01T04:13:17.432Z,926.54
2019-05-01T04:14:49.242Z,926.54
2019-05-01T04:16:21.053Z,926.51
2019-05-01T04:17:52.866Z,926.51
2019-05-01T04:19:24.680Z,926.51
2019-05-01T04:20:56.594Z,926.48
2019-05-01T04:22:28.309Z,926.47
2019-05-01T04:24:00.122Z,926.44
2019-05-01T04:25:31.937Z,926.39
2019-05-01T04:27:03.852Z,926.40
2019-05-01T04:28:35.563Z,926.40
2019-05-01T04:30:07.378Z,926.40
2019-05-01T04:31:39.197Z,926.41
2019-05-01T04:33:11.008Z,926.43
2019-05-01T04:34:42.818Z,926.42
2019-05-01T04:36:14.651Z,926.38
2019-05-01T04:37:46.446Z,926.37
2019-05-01T04:39:18.363Z,926.39
2019-05-01T04:40:50.073Z,926.33
2019-05-01T04:42:21.888Z,926.32
2019-05-01T04:43:53.705Z,926.28
2019-05-01T04:45:25.516Z,926.27
2019-05-01T04:46:57.346Z,926.30
2019-05-01T04:48:29.142Z,926.23
2019-05-01T04:50:00.956Z,926.18
2019-05-01T04:51:32.774Z,926.15
2019-05-01T04:53:04.583Z,926.13
2019-05-01T04:54:36.397Z,926.13
2019-05-01T04:56:08.210Z,926.10
2019-05-01T04:57:40.124Z,926.15
2019-05-01T04:59:11.843Z,926.17
2019-05-01T05:00:43.663Z,926.17
2019-05-01T05:02:15.467Z,926.07
2019-05-01T05:03:47.280Z,926.03
2019-05-01T05:05:19.093Z,926.00
2019-05-01T05:06:50.908Z,926.01
2019-05-01T05:08:22.722Z,926.00
2019-05-01T05:09:54.534Z,925.96
2019-05-01T05:11:26.349Z,926.00
2019-05-01T05:12:58.168Z,925.99
2019-05-01T05:14:29.977Z,925.96
2019-05-01T05:16:01.892Z,925.95
2019-05-01T05:17:33.605Z,925.94
2019-05-01T05:19:05.419Z,925.96
2019-05-01T05:20:37.232Z,926.03
2019-05-01T05:22:09.046Z,925.99
2019-05-01T05:23:40.860Z,926.05
2019-05-01T05:25:12.674Z,926.02
2019-05-01T05:26:44.488Z,925.92
2019-05-01T05:28:16.402Z,925.96
2019-05-01T05:29:48.115Z,925.90
2019-05-01T05:31:19.929Z,925.89
2019-05-01T05:32:51.743Z,925.89
2019-05-01T05:34:23.758Z,925.94
2019-05-01T05:35:55.371Z,925.96
2019-05-01T05:37:27.185Z,925.96
2019-05-01T05:38:59.002Z,925.93
2019-05-01T05:40:30.913Z,925.95
2019-05-01T05:42:02.629Z,925.92
2019-05-01T05:43:34.441Z,925.93
2019-05-01T05:45:06.256Z,925.96
2019-05-01T05:46:38.167Z,925.95
2019-05-01T05:48:09.881Z,925.96
2019-05-01T05:49:41.695Z,926.00
2019-05-01T05:51:13.521Z,926.02
2019-05-01T05:52:45.485Z,925.96
2019-05-01T05:54:17.137Z,925.96
2019-05-01T05:55:48.951Z,925.98
2019-05-01T05:57:20.764Z,925.95
2019-05-01T05:58:52.678Z,925.94
2019-05-01T06:00:24.393Z,925.95
2019-05-01T06:01:56.207Z,925.93
2019-05-01T06:03:31.628Z,925.83
2019-05-01T06:04:59.836Z,925.81
2019-05-01T06:06:31.647Z,925.79
2019-05-01T06:08:03.461Z,925.76
2019-05-01T06:09:35.276Z,925.77
2019-05-01T06:11:07.190Z,925.78
2019-05-01T06:12:41.779Z,925.74
2019-05-01T06:14:10.719Z,925.79
2019-05-01T06:15:42.777Z,925.73
2019-05-01T06:17:14.349Z,925.81
2019-05-01T06:18:46.161Z,925.83
2019-05-01T06:20:20.905Z,925.85
2019-05-01T06:21:49.790Z,925.83
2019-05-01T06:23:22.480Z,925.83
2019-05-01T06:24:53.418Z,925.83
2019-05-01T06:26:25.232Z,925.77
2019-05-01T06:27:57.046Z,925.77
2019-05-01T06:29:30.978Z,925.74
2019-05-01T06:31:00.675Z,925.77
2019-05-01T06:32:33.594Z,925.74
2019-05-01T06:34:04.302Z,925.75
2019-05-01T06:35:38.094Z,925.79
2019-05-01T06:37:07.930Z,925.81
2019-05-01T06:38:39.744Z,925.83
2019-05-01T06:40:11.559Z,925.85
2019-05-01T06:41:43.373Z,925.81
2019-05-01T06:43:15.186Z,925.89
2019-05-01T06:44:46.999Z,925.89
2019-05-01T06:46:22.130Z,925.91
2019-05-01T06:47:52.389Z,925.91
2019-05-01T06:49:24.283Z,925.91
2019-05-01T06:50:54.257Z,925.89
2019-05-01T06:52:29.391Z,925.86
2019-05-01T06:53:57.884Z,925.82
2019-05-01T06:55:29.700Z,925.78
2019-05-01T06:57:01.515Z,925.83
2019-05-01T06:58:33.350Z,925.78
2019-05-01T07:00:08.125Z,925.81
2019-05-01T07:01:36.955Z,925.78
2019-05-01T07:03:10.445Z,925.79
2019-05-01T07:04:40.585Z,925.84
2019-05-01T07:06:14.423Z,925.82
2019-05-01T07:07:48.247Z,925.76
2019-05-01T07:09:27.389Z,925.87
2019-05-01T07:10:47.841Z,925.80
2019-05-01T07:12:23.916Z,925.87
2019-05-01T07:13:51.469Z,925.83
2019-05-01T07:15:26.830Z,925.86
2019-05-01T07:16:55.098Z,925.81
2019-05-01T07:18:29.174Z,925.82
2019-05-01T07:19:58.727Z,925.86
2019-05-01T07:21:32.787Z,925.80
2019-05-01T07:23:02.358Z,925.79
2019-05-01T07:24:34.271Z,925.78
2019-05-01T07:26:10.002Z,925.74
2019-05-01T07:27:37.797Z,925.71
2019-05-01T07:29:10.962Z,925.71
2019-05-01T07:30:41.682Z,925.69
2019-05-01T07:32:15.046Z,925.68
2019-05-01T07:33:47.127Z,925.65
2019-05-01T07:35:16.868Z,925.69
2019-05-01T07:36:50.124Z,925.70
2019-05-01T07:38:20.499Z,925.68
2019-05-01T07:39:52.312Z,925.67
2019-05-01T07:41:24.128Z,925.70
2019-05-01T07:42:56.042Z,925.65
2019-05-01T07:44:30.102Z,925.65
2019-05-01T07:46:02.202Z,925.65
2019-05-01T07:47:31.696Z,925.68
2019-05-01T07:49:03.199Z,925.70
2019-05-01T07:50:35.011Z,925.69
2019-05-01T07:52:06.826Z,925.66
2019-05-01T07:53:38.662Z,925.72
2019-05-01T07:55:13.131Z,925.76
2019-05-01T07:56:44.895Z,925.78
2019-05-01T07:58:16.346Z,925.79
2019-05-01T07:59:45.895Z,925.78
2019-05-01T08:01:20.004Z,925.82
2019-05-01T08:02:49.561Z,925.86
2019-05-01T08:04:35.351Z,925.87
2019-05-01T08:05:53.153Z,925.94
2019-05-01T08:07:27.800Z,926.01
2019-05-01T08:08:56.782Z,925.97
2019-05-01T08:10:31.497Z,925.97
2019-05-01T08:12:00.410Z,925.97
2019-05-01T08:13:34.963Z,925.95
2019-05-01T08:15:04.041Z,925.99
2019-05-01T08:16:37.765Z,925.97
2019-05-01T08:18:07.668Z,925.95
2019-05-01T08:19:40.707Z,925.94
2019-05-01T08:21:11.297Z,925.90
2019-05-01T08:22:43.110Z,925.90
2019-05-01T08:24:17.998Z,925.93
2019-05-01T08:25:46.840Z,925.91
2019-05-01T08:27:20.281Z,925.97
2019-05-01T08:28:50.369Z,926.00
2019-05-01T08:30:22.193Z,925.94
2019-05-01T08:31:54.034Z,925.94
2019-05-01T08:33:25.811Z,925.99
2019-05-01T08:35:00.432Z,925.93
2019-05-01T08:36:29.440Z,925.93
2019-05-01T08:38:01.354Z,925.96
2019-05-01T08:39:33.071Z,925.99
2019-05-01T08:41:04.883Z,926.01
2019-05-01T08:42:37.708Z,926.00
2019-05-01T08:44:08.612Z,926.03
2019-05-01T08:45:40.966Z,926.03
2019-05-01T08:47:12.139Z,926.03
2019-05-01T08:48:43.956Z,926.02
2019-05-01T08:50:19.864Z,926.03
2019-05-01T08:51:47.586Z,925.99
2019-05-01T08:53:22.104Z,925.98
2019-05-01T08:54:51.212Z,926.01
2019-05-01T08:56:23.496Z,926.04
2019-05-01T08:57:54.839Z,926.07
2019-05-01T08:59:26.653Z,926.06
2019-05-01T09:00:58.468Z,926.11
2019-05-01T09:02:30.383Z,926.15
2019-05-01T09:04:12.351Z,926.17
2019-05-01T09:05:34.178Z,926.25
2019-05-01T09:07:05.724Z,926.29
2019-05-01T09:08:37.547Z,926.26
2019-05-01T09:10:09.443Z,926.25
2019-05-01T09:11:41.192Z,926.23
2019-05-01T09:13:12.983Z,926.24
2019-05-01T09:14:44.897Z,926.32
2019-05-01T09:16:19.145Z,926.30
2019-05-01T09:17:48.427Z,926.25
2019-05-01T09:19:20.239Z,926.27
2019-05-01T09:20:52.054Z,926.34
2019-05-01T09:22:23.877Z,926.40
2019-05-01T09:23:55.683Z,926.34
2019-05-01T09:25:30.901Z,926.42
2019-05-01T09:26:59.411Z,926.41
2019-05-01T09:28:31.124Z,926.38
2019-05-01T09:30:04.547Z,926.37
2019-05-01T09:31:35.591Z,926.39
2019-05-01T09:33:06.767Z,926.37
2019-05-01T09:34:38.381Z,926.40
2019-05-01T09:36:10.197Z,926.35
2019-05-01T09:37:42.010Z,926.37
2019-05-01T09:39:13.824Z,926.44
2019-05-01T09:40:45.638Z,926.45
2019-05-01T09:42:22.708Z,926.48
2019-05-01T09:43:49.269Z,926.55
2019-05-01T09:45:21.080Z,926.51
2019-05-01T09:46:52.894Z,926.53
2019-05-01T09:48:24.708Z,926.53
2019-05-01T09:49:56.532Z,926.61
2019-05-01T09:51:28.449Z,926.66
2019-05-01T09:53:00.951Z,926.74
2019-05-01T09:54:31.966Z,926.71
2019-05-01T09:56:07.698Z,926.76
2019-05-01T09:57:36.404Z,926.75
2019-05-01T09:59:07.415Z,926.81
2019-05-01T10:00:39.223Z,926.85
2019-05-01T10:02:11.037Z,926.86
2019-05-01T10:03:44.853Z,926.86
2019-05-01T10:05:14.668Z,926.92
2019-05-01T10:06:47.750Z,926.94
2019-05-01T10:08:18.297Z,927.01
2019-05-01T10:09:52.314Z,927.03
2019-05-01T10:11:21.926Z,927.02
2019-05-01T10:12:53.742Z,926.94
2019-05-01T10:14:25.557Z,926.95
2019-05-01T10:15:57.372Z,926.95
2019-05-01T10:17:29.190Z,926.99
2019-05-01T10:19:01.004Z,927.00
2019-05-01T10:20:32.823Z,927.06
2019-05-01T10:22:04.637Z,927.12
2019-05-01T10:23:36.455Z,927.16
2019-05-01T10:25:08.559Z,927.21
2019-05-01T10:26:40.088Z,927.23
2019-05-01T10:28:15.830Z,927.19
2019-05-01T10:29:43.722Z,927.14
2019-05-01T10:31:15.538Z,927.14
2019-05-01T10:32:47.353Z,927.19
2019-05-01T10:34:19.171Z,927.18
2019-05-01T10:35:50.987Z,927.19
2019-05-01T10:37:23.677Z,927.17
2019-05-01T10:38:54.619Z,927.21
2019-05-01T10:40:26.976Z,927.28
2019-05-01T10:41:58.257Z,927.24
2019-05-01T10:43:30.074Z,927.23
2019-05-01T10:45:01.890Z,927.15
2019-05-01T10:46:34.461Z,927.21
2019-05-01T10:48:05.525Z,927.18
2019-05-01T10:49:37.345Z,927.22
2019-05-01T10:51:09.163Z,927.17
2019-05-01T10:52:40.982Z,927.10
2019-05-01T10:54:12.799Z,927.19
2019-05-01T10:55:44.619Z,927.14
2019-05-01T10:57:16.449Z,927.25
2019-05-01T10:58:48.355Z,927.28
2019-05-01T11:00:20.073Z,927.29
2019-05-01T11:01:51.900Z,927.25
2019-05-01T11:03:23.710Z,927.39
2019-05-01T11:04:55.647Z,927.39
2019-05-01T11:06:27.366Z,927.34
2019-05-01T11:07:59.164Z,927.33
2019-05-01T11:09:30.995Z,927.24
2019-05-01T11:11:02.799Z,927.28
2019-05-01T11:12:34.618Z,927.31
2019-05-01T11:14:06.436Z,927.34
2019-05-01T11:15:38.254Z,927.43
2019-05-01T11:17:10.072Z,927.42
2019-05-01T11:18:42.101Z,927.39
2019-05-01T11:20:13.709Z,927.46
2019-05-01T11:21:45.528Z,927.45
2019-05-01T11:23:17.444Z,927.50
2019-05-01T11:24:49.163Z,927.53
2019-05-01T11:26:20.980Z,927.54
2019-05-01T11:27:52.797Z,927.51
2019-05-01T11:29:24.719Z,927.54
2019-05-01T11:30:56.433Z,927.53
2019-05-01T11:32:28.251Z,927.49
2019-05-01T11:34:00.069Z,927.53
2019-05-01T11:35:32.209Z,927.58
2019-05-01T11:37:03.707Z,927.64
2019-05-01T11:38:35.527Z,927.63
2019-05-01T11:40:07.340Z,927.68
2019-05-01T11:41:39.258Z,927.74
2019-05-01T11:43:10.975Z,927.79
2019-05-01T11:44:43.311Z,927.79
2019-05-01T11:46:14.611Z,927.81
2019-05-01T11:47:46.431Z,927.82
2019-05-01T11:49:18.552Z,927.80
2019-05-01T11:50:50.065Z,927.85
2019-05-01T11:52:21.883Z,927.83
2019-05-01T11:53:54.553Z,927.80
2019-05-01T11:55:25.884Z,927.81
2019-05-01T11:56:57.338Z,927.79
2019-05-01T11:58:29.157Z,927.79
2019-05-01T12:00:01.196Z,927.81
2019-05-01T12:01:32.796Z,927.82
2019-05-01T12:03:04.616Z,927.80
2019-05-01T12:04:36.436Z,927.87
2019-05-01T12:06:08.357Z,927.86
2019-05-01T12:07:40.073Z,927.87
2019-05-01T12:09:11.895Z,927.84
2019-05-01T12:10:43.917Z,927.85
2019-05-01T12:12:15.536Z,927.85
2019-05-01T12:13:47.357Z,927.84
2019-05-01T12:15:19.529Z,927.87
2019-05-01T12:16:51.001Z,927.91
2019-05-01T12:18:22.920Z,927.94
2019-05-01T12:19:54.641Z,927.97
2019-05-01T12:21:26.462Z,927.94
2019-05-01T12:22:58.285Z,927.96
2019-05-01T12:24:30.104Z,927.99
2019-05-01T12:26:01.926Z,927.96
2019-05-01T12:27:33.750Z,928.02
2019-05-01T12:29:05.569Z,928.03
2019-05-01T12:32:09.314Z,928.03
2019-05-01T12:33:41.074Z,927.96
2019-05-01T12:35:13.550Z,927.90
2019-05-01T12:36:44.677Z,927.90
2019-05-01T12:38:16.601Z,927.89
2019-05-01T12:39:48.326Z,927.95
2019-05-01T12:41:20.144Z,927.95
2019-05-01T12:42:51.973Z,927.96
2019-05-01T12:44:23.788Z,928.00
2019-05-01T12:47:27.432Z,928.03
2019-05-01T12:48:59.256Z,927.97
2019-05-01T12:50:31.079Z,927.94
2019-05-01T12:52:10.265Z,927.96
2019-05-01T12:53:34.721Z,928.02
2019-05-01T12:55:06.542Z,928.01
2019-05-01T12:56:38.563Z,928.02
2019-05-01T12:58:10.185Z,928.00
2019-05-01T12:59:42.007Z,928.00
2019-05-01T13:01:13.830Z,928.00
2019-05-01T13:02:45.757Z,928.04
2019-05-01T13:04:17.477Z,927.94
2019-05-01T13:05:49.298Z,927.97
2019-05-01T13:07:21.121Z,927.84
2019-05-01T13:08:52.945Z,927.85
2019-05-01T13:10:24.771Z,927.85
2019-05-01T13:11:56.593Z,927.83
2019-05-01T13:15:00.340Z,927.77
2019-05-01T13:16:32.064Z,927.74
2019-05-01T13:18:03.889Z,927.81
2019-05-01T13:19:36.220Z,927.79
2019-05-01T13:21:07.538Z,927.78
2019-05-01T13:22:39.363Z,927.74
2019-05-01T13:24:11.493Z,927.78
2019-05-01T13:25:43.013Z,927.81
2019-05-01T13:27:14.836Z,927.78
2019-05-01T13:28:46.660Z,927.81
2019-05-01T13:30:18.487Z,927.77
2019-05-01T13:31:50.312Z,927.76
2019-05-01T13:33:22.338Z,927.74
2019-05-01T13:34:53.962Z,927.77
2019-05-01T13:36:25.789Z,927.80
2019-05-01T13:37:57.615Z,927.75
2019-05-01T13:41:01.268Z,927.62
2019-05-01T13:42:33.396Z,927.53
2019-05-01T13:44:04.918Z,927.55
2019-05-01T13:45:36.744Z,927.58
2019-05-01T13:47:08.583Z,927.55
2019-05-01T13:48:40.397Z,927.53
2019-05-01T13:50:12.223Z,927.51
2019-05-01T13:51:44.050Z,927.51
2019-05-01T13:53:15.975Z,927.48
2019-05-01T13:54:47.704Z,927.47
2019-05-01T13:56:19.526Z,927.43
2019-05-01T13:57:51.350Z,927.28
2019-05-01T13:59:23.176Z,927.32
2019-05-01T14:00:54.999Z,927.28
2019-05-01T14:02:26.825Z,927.21
2019-05-01T14:03:58.647Z,927.16
2019-05-01T14:05:30.470Z,927.13
2019-05-01T14:07:15.558Z,927.06
2019-05-01T14:08:34.118Z,927.08
2019-05-01T14:10:05.941Z,927.00
2019-05-01T14:11:37.868Z,926.90
2019-05-01T14:13:09.591Z,927.00
2019-05-01T14:16:14.453Z,926.82
2019-05-01T14:17:45.061Z,926.74
2019-05-01T14:19:16.884Z,926.71
2019-05-01T14:20:48.709Z,926.75
2019-05-01T14:22:20.533Z,926.75
2019-05-01T14:23:52.357Z,926.81
2019-05-01T14:25:24.185Z,926.83
2019-05-01T14:26:56.008Z,926.83
2019-05-01T14:28:27.832Z,926.77
2019-05-01T14:29:59.856Z,926.65
2019-05-01T14:31:31.481Z,926.62
2019-05-01T14:33:03.307Z,926.53
2019-05-01T14:34:35.437Z,926.50
2019-05-01T14:36:06.957Z,926.39
2019-05-01T14:37:38.782Z,926.45
2019-05-01T14:39:10.609Z,926.42
2019-05-01T14:40:42.432Z,926.39
2019-05-01T14:42:14.258Z,926.41
2019-05-01T14:43:46.083Z,926.42
2019-05-01T14:45:17.908Z,926.46
2019-05-01T14:46:49.732Z,926.30
2019-05-01T14:48:21.657Z,926.34
2019-05-01T14:49:53.382Z,926.30
2019-05-01T14:51:25.208Z,926.32
2019-05-01T14:52:57.032Z,926.25
2019-05-01T14:54:28.870Z,926.19
2019-05-01T14:56:00.681Z,926.26
2019-05-01T14:57:32.509Z,926.16
2019-05-01T14:59:04.330Z,926.17
2019-05-01T15:00:36.254Z,926.13
2019-05-01T15:02:07.978Z,926.16
2019-05-01T15:03:39.803Z,926.18
2019-05-01T15:05:11.626Z,926.11
2019-05-01T15:06:43.552Z,926.13
2019-05-01T15:08:15.274Z,926.05
2019-05-01T15:09:47.303Z,926.01
2019-05-01T15:11:19.142Z,925.99
2019-05-01T15:12:50.748Z,925.92
2019-05-01T15:14:22.571Z,925.94
2019-05-01T15:15:54.396Z,925.89
2019-05-01T15:17:26.220Z,925.93
2019-05-01T15:18:58.045Z,925.90
2019-05-01T15:20:29.870Z,925.84
2019-05-01T15:22:01.694Z,925.89
2019-05-01T15:23:33.518Z,925.78
2019-05-01T15:25:05.444Z,925.72
2019-05-01T15:26:37.369Z,925.64
2019-05-01T15:28:09.200Z,925.69
2019-05-01T15:29:40.814Z,925.69
2019-05-01T15:31:12.741Z,925.67
2019-05-01T15:32:44.479Z,925.67
2019-05-01T15:34:16.285Z,925.67
2019-05-01T15:35:48.110Z,925.61
2019-05-01T15:37:19.932Z,925.57
2019-05-01T15:38:51.756Z,925.52
2019-05-01T15:40:23.579Z,925.50
2019-05-01T15:41:55.403Z,925.36
2019-05-01T15:43:27.327Z,925.30
2019-05-01T15:44:59.051Z,925.32
2019-05-01T15:46:30.874Z,925.44
2019-05-01T15:48:02.697Z,925.44
2019-05-01T15:49:34.521Z,925.32
2019-05-01T15:51:06.343Z,925.32
2019-05-01T15:52:38.167Z,925.34
2019-05-01T15:54:09.990Z,925.22
2019-05-01T15:55:41.814Z,925.32
2019-05-01T15:57:13.638Z,925.18
2019-05-01T15:58:45.462Z,925.14
2019-05-01T16:00:17.286Z,925.13
2019-05-01T16:01:49.311Z,925.09
2019-05-01T16:03:20.936Z,925.11
2019-05-01T16:04:52.761Z,925.04
2019-05-01T16:06:24.590Z,925.09
2019-05-01T16:08:08.987Z,924.99
2019-05-01T16:09:28.236Z,925.00
2019-05-01T16:11:00.065Z,925.06
2019-05-01T16:12:31.885Z,925.16
2019-05-01T16:14:03.713Z,925.28
2019-05-01T16:15:35.534Z,925.21
2019-05-01T16:17:07.360Z,925.17
2019-05-01T16:18:39.183Z,925.12
2019-05-01T16:20:11.107Z,925.08
2019-05-01T16:21:43.033Z,925.07
2019-05-01T16:23:14.653Z,924.97
2019-05-01T16:24:46.781Z,925.05
2019-05-01T16:26:18.303Z,925.00
2019-05-01T16:27:50.122Z,924.92
2019-05-01T16:29:21.945Z,924.92
2019-05-01T16:30:53.767Z,924.93
2019-05-01T16:32:25.691Z,924.89
2019-05-01T16:33:57.414Z,924.85
2019-05-01T16:35:29.237Z,924.83
2019-05-01T16:37:01.060Z,924.81
2019-05-01T16:38:32.983Z,924.81
2019-05-01T16:40:04.712Z,924.79
2019-05-01T16:41:36.531Z,924.81
2019-05-01T16:43:08.356Z,924.78
2019-05-01T16:44:40.180Z,924.67
2019-05-01T16:46:12.005Z,924.71
2019-05-01T16:47:43.830Z,924.62
2019-05-01T16:49:15.654Z,924.64
2019-05-01T16:50:47.480Z,924.63
2019-05-01T16:52:19.304Z,924.58
2019-05-01T16:53:51.128Z,924.58
2019-05-01T16:55:22.954Z,924.60
2019-05-01T16:56:57.373Z,924.57
2019-05-01T16:58:26.604Z,924.54
2019-05-01T16:59:58.429Z,924.44
2019-05-01T17:01:30.254Z,924.54
2019-05-01T17:03:02.178Z,924.53
2019-05-01T17:04:33.904Z,924.56
2019-05-01T17:06:05.730Z,924.50
2019-05-01T17:07:37.552Z,924.48
2019-05-01T17:09:09.377Z,924.48
2019-05-01T17:10:41.202Z,924.54
2019-05-01T17:12:13.026Z,924.45
2019-05-01T17:13:44.851Z,924.53
2019-05-01T17:15:16.776Z,924.45
2019-05-01T17:16:48.501Z,924.40
2019-05-01T17:18:20.326Z,924.44
2019-05-01T17:19:52.149Z,924.45
2019-05-01T17:21:23.977Z,924.50
2019-05-01T17:22:55.801Z,924.64
2019-05-01T17:24:27.623Z,924.63
2019-05-01T17:25:59.447Z,924.61
2019-05-01T17:27:31.323Z,924.58
2019-05-01T17:29:03.097Z,924.65
2019-05-01T17:30:34.920Z,924.52
2019-05-01T17:32:06.746Z,924.68
2019-05-01T17:33:38.668Z,924.63
2019-05-01T17:35:10.595Z,924.61
2019-05-01T17:36:42.218Z,924.61
2019-05-01T17:38:14.041Z,924.62
2019-05-01T17:39:45.864Z,924.58
2019-05-01T17:41:17.688Z,924.59
2019-05-01T17:42:49.512Z,924.69
2019-05-01T17:44:25.093Z,924.83
2019-05-01T17:45:53.161Z,924.78
2019-05-01T17:47:26.958Z,924.72
2019-05-01T17:48:56.808Z,924.79
2019-05-01T17:52:00.555Z,924.68
2019-05-01T17:53:32.278Z,924.64
2019-05-01T17:55:04.103Z,924.63
2019-05-01T17:56:35.926Z,924.66
2019-05-01T17:58:07.759Z,924.59
2019-05-01T17:59:39.574Z,924.59
2019-05-01T18:01:11.397Z,924.58
2019-05-01T18:02:43.229Z,924.56
2019-05-01T18:04:15.147Z,924.56
2019-05-01T18:05:46.868Z,924.59
2019-05-01T18:07:18.692Z,924.53
2019-05-01T18:09:02.433Z,924.56
2019-05-01T18:10:22.439Z,924.50
2019-05-01T18:11:54.162Z,924.52
2019-05-01T18:13:25.987Z,924.54
2019-05-01T18:14:57.809Z,924.56
2019-05-01T18:16:29.633Z,924.60
2019-05-01T18:18:01.455Z,924.59
2019-05-01T18:19:33.281Z,924.56
2019-05-01T18:21:05.101Z,924.65
2019-05-01T18:22:38.839Z,924.65
2019-05-01T18:24:08.749Z,924.60
2019-05-01T18:25:40.571Z,924.59
2019-05-01T18:27:14.672Z,924.55
2019-05-01T18:28:44.320Z,924.56
2019-05-01T18:30:20.485Z,924.55
2019-05-01T18:31:47.863Z,924.51
2019-05-01T18:33:22.079Z,924.53
2019-05-01T18:34:51.610Z,924.57
2019-05-01T18:36:24.674Z,924.59
2019-05-01T18:37:55.155Z,924.56
2019-05-01T18:39:27.120Z,924.61
2019-05-01T18:40:58.901Z,924.59
2019-05-01T18:42:30.637Z,924.60
2019-05-01T18:45:34.471Z,924.69
2019-05-01T18:48:38.217Z,924.76
2019-05-01T18:50:09.741Z,924.78
2019-05-01T18:51:42.004Z,924.83
2019-05-01T18:53:13.385Z,924.82
2019-05-01T18:54:45.305Z,924.81
2019-05-01T18:56:17.027Z,924.82
2019-05-01T18:57:48.851Z,924.80
2019-05-01T18:59:20.674Z,924.81
2019-05-01T19:00:52.596Z,924.80
2019-05-01T19:02:24.988Z,924.79
2019-05-01T19:06:59.886Z,924.81
2019-05-01T19:08:31.607Z,924.87
2019-05-01T19:10:03.439Z,924.90
2019-05-01T19:11:35.381Z,924.95
2019-05-01T19:13:07.078Z,925.03
2019-05-01T19:14:38.903Z,924.95
2019-05-01T19:16:10.715Z,924.95
2019-05-01T19:17:42.538Z,925.02
2019-05-01T19:19:14.368Z,925.01
2019-05-01T19:20:58.851Z,924.96